Time;durP1;ratioP1;P1;durP2;ratioP2;P2;SDS_P1;SDS_P2;PMS_P1;PMS_P2;Temp;Humidity;BMP_temperature;BMP_pressure;BME280_temperature;BME280_humidity;BME280_pressure;Samples;Min_cycle;Max_cycle;Signal;HPM_P1;HPM_P2
2023/03/13 00:00:29;;;;;;;22.65;4.03;;;8.50;1.00;;;;;;4974330;28;20030;-63
2023/03/13 00:02:54;;;;;;;31.42;4.78;;;8.80;1.00;;;;;;5004252;28;20381;-63
2023/03/13 00:05:20;;;;;;;25.33;4.40;;;8.40;1.00;;;;;;4976375;28;20219;-63
2023/03/13 00:07:46;;;;;;;27.10;4.60;;;8.70;1.00;;;;;;4972795;28;20042;-63
2023/03/13 00:10:11;;;;;;;22.50;4.00;;;8.50;1.00;;;;;;4974202;28;20046;-64
2023/03/13 00:12:37;;;;;;;30.38;4.55;;;8.60;1.00;;;;;;4974296;28;20366;-63
2023/03/13 00:15:03;;;;;;;29.20;4.75;;;8.50;1.00;;;;;;5005395;28;21123;-64
2023/03/13 00:17:29;;;;;;;32.33;4.55;;;8.50;1.00;;;;;;4976558;28;20038;-63
2023/03/13 00:19:54;;;;;;;33.63;5.25;;;8.70;1.00;;;;;;4975356;28;20070;-63
2023/03/13 00:22:20;;;;;;;28.98;4.45;;;8.50;1.00;;;;;;4976476;28;20049;-63
2023/03/13 00:24:46;;;;;;;31.02;4.85;;;8.50;99.90;;;;;;4974507;28;20039;-63
2023/03/13 00:27:11;;;;;;;28.20;5.55;;;8.50;99.90;;;;;;5008223;28;20411;-64
2023/03/13 00:29:37;;;;;;;28.23;4.80;;;8.40;99.90;;;;;;4994935;28;20114;-63
2023/03/13 00:32:04;;;;;;;25.60;3.72;;;8.50;99.90;;;;;;4978704;28;20558;-63
2023/03/13 00:34:31;;;;;;;31.25;4.93;;;8.80;99.90;;;;;;4960287;28;20152;-63
2023/03/13 00:36:56;;;;;;;29.25;5.30;;;8.40;99.90;;;;;;5009258;28;20145;-65
2023/03/13 00:39:22;;;;;;;30.88;5.38;;;8.30;99.90;;;;;;4979089;28;20034;-63
2023/03/13 00:41:48;;;;;;;30.23;5.53;;;8.70;99.90;;;;;;4977592;28;20045;-64
2023/03/13 00:44:14;;;;;;;31.33;4.97;;;8.30;1.00;;;;;;4979999;28;20042;-63
2023/03/13 00:46:39;;;;;;;30.35;4.47;;;8.70;1.00;;;;;;5009599;28;20063;-62
2023/03/13 00:49:05;;;;;;;40.95;6.40;;;8.60;1.00;;;;;;4975918;28;20511;-63
2023/03/13 00:51:31;;;;;;;31.38;5.93;;;8.70;1.00;;;;;;4991720;28;20147;-64
2023/03/13 00:54:02;;;;;;;38.30;6.18;;;8.20;1.00;;;;;;4976219;28;20050;-64
2023/03/13 00:56:28;;;;;;;30.55;5.10;;;8.50;1.00;;;;;;4995913;28;20496;-63
2023/03/13 00:58:54;;;;;;;28.17;4.85;;;8.40;1.00;;;;;;4975400;28;20089;-62
2023/03/13 01:01:21;;;;;;;28.88;4.85;;;8.20;1.00;;;;;;4993866;28;20041;-63
2023/03/13 01:03:53;;;;;;;36.70;5.85;;;8.30;1.00;;;;;;4975373;28;20872;-63
2023/03/13 01:06:21;;;;;;;36.35;5.82;;;8.30;1.00;;;;;;4977761;28;20105;-63
2023/03/13 01:08:48;;;;;;;39.60;6.18;;;8.50;1.00;;;;;;4977046;28;20341;-63
2023/03/13 01:11:23;;;;;;;38.90;6.32;;;8.20;8.00;;;;;;5008777;28;20497;-64
2023/03/13 01:13:52;;;;;;;42.92;6.38;;;8.60;31.30;;;;;;4977326;28;20078;-63
2023/03/13 01:16:20;;;;;;;30.83;5.53;;;8.60;29.80;;;;;;5009673;28;20536;-63
2023/03/13 01:18:48;;;;;;;33.53;5.65;;;8.50;54.80;;;;;;4976732;28;20376;-64
2023/03/13 01:21:18;;;;;;;39.53;6.68;;;8.20;60.80;;;;;;4977840;28;20539;-65
2023/03/13 01:23:43;;;;;;;34.92;5.75;;;8.60;75.50;;;;;;4963267;28;20562;-64
2023/03/13 01:26:09;;;;;;;29.77;5.50;;;8.30;75.20;;;;;;4992141;28;20114;-61
2023/03/13 01:28:35;;;;;;;32.45;5.43;;;8.60;65.70;;;;;;4994233;28;20037;-63
2023/03/13 01:31:13;;;;;;;36.13;5.60;;;8.30;70.60;;;;;;4993676;28;20041;-64
2023/03/13 01:33:38;;;;;;;34.72;5.72;;;8.80;78.90;;;;;;4977840;28;20748;-63
2023/03/13 01:36:05;;;;;;;31.65;5.40;;;8.60;88.20;;;;;;4976160;28;20108;-63
2023/03/13 01:38:30;;;;;;;29.67;4.82;;;8.70;88.80;;;;;;4975719;28;20042;-63
2023/03/13 01:40:56;;;;;;;41.60;5.93;;;8.30;85.60;;;;;;4976707;28;20163;-64
2023/03/13 01:43:25;;;;;;;40.80;5.70;;;8.80;92.30;;;;;;4992154;28;20045;-63
2023/03/13 01:46:23;;;;;;;39.92;6.30;;;8.70;94.80;;;;;;4977632;28;20574;-64
2023/03/13 01:48:58;;;;;;;27.85;4.22;;;8.50;95.20;;;;;;4959799;28;20423;-64
2023/03/13 01:51:35;;;;;;;38.50;5.85;;;8.40;99.90;;;;;;4975352;28;20691;-64
2023/03/13 01:54:04;;;;;;;33.95;5.45;;;8.30;99.90;;;;;;4973383;28;20052;-65
2023/03/13 01:56:40;;;;;;;38.72;6.20;;;8.30;99.90;;;;;;4979220;28;20126;-64
2023/03/13 01:59:11;;;;;;;33.55;5.55;;;8.30;99.90;;;;;;4976161;28;20377;-63
2023/03/13 02:01:37;;;;;;;29.75;4.47;;;8.50;99.90;;;;;;4976836;28;20107;-64
2023/03/13 02:04:04;;;;;;;35.58;5.60;;;8.10;99.90;;;;;;4976450;28;20042;-63
2023/03/13 02:06:33;;;;;;;33.38;5.97;;;8.20;99.90;;;;;;4977019;28;20497;-64
2023/03/13 02:09:04;;;;;;;35.45;5.25;;;8.10;99.90;;;;;;4975063;28;20349;-63
2023/03/13 02:11:54;;;;;;;34.85;6.07;;;8.40;99.90;;;;;;4980476;28;20084;-63
2023/03/13 02:14:25;;;;;;;37.47;5.70;;;8.00;99.90;;;;;;4977013;28;20042;-63
2023/03/13 02:16:52;;;;;;;33.50;5.22;;;8.20;99.90;;;;;;4976992;28;20363;-63
2023/03/13 02:19:30;;;;;;;34.65;5.80;;;8.00;99.90;;;;;;4990925;28;20104;-64
2023/03/13 02:22:37;;;;;;;36.35;6.03;;;8.10;99.90;;;;;;4978455;28;20417;-63
2023/03/13 02:25:15;;;;;;;40.42;6.25;;;8.10;99.90;;;;;;4973571;28;20042;-65
2023/03/13 02:27:43;;;;;;;29.13;5.25;;;8.60;99.90;;;;;;5007488;28;20078;-63
2023/03/13 02:30:12;;;;;;;24.40;4.82;;;8.60;99.90;;;;;;4977098;28;20105;-63
2023/03/13 02:32:39;;;;;;;30.58;5.07;;;8.00;99.90;;;;;;4976188;28;20042;-63
2023/03/13 02:35:11;;;;;;;30.70;5.35;;;8.50;99.90;;;;;;4990539;28;20645;-62
2023/03/13 02:37:39;;;;;;;25.70;4.22;;;8.20;99.90;;;;;;4976572;28;20638;-64
2023/03/13 02:40:09;;;;;;;33.42;5.32;;;8.60;99.90;;;;;;4977081;28;20033;-63
2023/03/13 02:42:37;;;;;;;33.83;5.68;;;8.60;99.90;;;;;;4974405;28;20046;-63
2023/03/13 02:45:04;;;;;;;32.28;5.90;;;8.10;99.90;;;;;;5005941;28;20046;-63
2023/03/13 02:47:30;;;;;;;36.25;6.00;;;8.00;99.90;;;;;;4976278;28;20038;-63
2023/03/13 02:49:55;;;;;;;29.58;5.45;;;8.30;99.90;;;;;;5006772;28;20296;-64
2023/03/13 02:52:36;;;;;;;45.80;7.55;;;8.00;99.90;;;;;;4978090;28;20077;-63
2023/03/13 02:55:08;;;;;;;34.97;6.47;;;7.90;99.90;;;;;;4973075;28;20058;-65
2023/03/13 02:57:34;;;;;;;36.75;7.05;;;8.50;99.90;;;;;;4958537;28;20038;-63
2023/03/13 03:00:01;;;;;;;35.30;7.43;;;8.30;99.90;;;;;;4998822;28;20373;-63
2023/03/13 03:02:26;;;;;;;28.33;5.90;;;8.40;99.90;;;;;;5006703;28;20045;-63
2023/03/13 03:04:52;;;;;;;29.42;6.90;;;8.50;99.90;;;;;;5007323;28;20050;-64
2023/03/13 03:07:18;;;;;;;36.25;6.82;;;7.90;99.90;;;;;;4977727;28;20368;-63
2023/03/13 03:09:43;;;;;;;31.92;5.97;;;8.20;99.90;;;;;;5007234;28;20105;-65
2023/03/13 03:12:09;;;;;;;22.77;6.10;;;7.90;99.90;;;;;;4990994;28;20042;-64
2023/03/13 03:14:35;;;;;;;20.85;4.80;;;8.00;99.90;;;;;;4992323;28;20647;-63
2023/03/13 03:17:01;;;;;;;22.83;5.45;;;8.50;99.90;;;;;;4957720;28;20088;-64
2023/03/13 03:19:27;;;;;;;27.08;6.28;;;7.80;99.90;;;;;;4990861;28;20038;-64
2023/03/13 03:21:52;;;;;;;23.52;5.60;;;8.20;99.90;;;;;;4975842;28;20221;-65
2023/03/13 03:24:18;;;;;;;22.52;5.40;;;8.00;99.90;;;;;;4974349;28;20121;-66
2023/03/13 03:26:44;;;;;;;13.77;4.63;;;8.00;99.90;;;;;;4992551;28;20088;-65
2023/03/13 03:29:09;;;;;;;19.58;4.57;;;8.50;99.90;;;;;;4992526;28;20055;-65
2023/03/13 03:31:36;;;;;;;16.75;4.38;;;8.10;99.90;;;;;;4990856;28;20428;-65
2023/03/13 03:34:01;;;;;;;16.73;4.13;;;8.80;99.90;;;;;;5007225;28;20575;-64
2023/03/13 03:36:28;;;;;;;11.85;3.13;;;8.80;99.90;;;;;;4974080;28;20129;-64
2023/03/13 03:38:53;;;;;;;15.68;3.72;;;8.20;99.90;;;;;;4989664;28;20046;-65
2023/03/13 03:41:20;;;;;;;11.68;2.95;;;8.80;99.90;;;;;;4987132;28;20400;-65
2023/03/13 03:43:46;;;;;;;11.55;3.55;;;8.20;99.90;;;;;;4976712;28;20388;-65
2023/03/13 03:46:12;;;;;;;7.70;2.80;;;8.30;99.90;;;;;;4975016;28;20092;-65
2023/03/13 03:48:41;;;;;;;9.45;3.00;;;8.40;99.90;;;;;;4993068;28;20432;-65
2023/03/13 03:51:07;;;;;;;12.18;3.38;;;8.50;99.90;;;;;;5006459;28;20069;-66
2023/03/13 03:53:33;;;;;;;13.85;3.15;;;8.20;99.90;;;;;;4975091;28;20073;-64
2023/03/13 03:56:00;;;;;;;9.82;3.13;;;8.40;99.90;;;;;;4995909;28;20149;-65
2023/03/13 03:58:25;;;;;;;12.05;3.80;;;9.10;99.90;;;;;;4991015;28;20300;-66
2023/03/13 04:00:51;;;;;;;9.93;3.58;;;9.10;99.90;;;;;;4978020;28;20042;-66
2023/03/13 04:03:17;;;;;;;8.93;2.90;;;9.10;99.90;;;;;;4979604;28;20046;-66
2023/03/13 04:05:43;;;;;;;5.75;2.35;;;9.10;99.90;;;;;;4979801;28;20033;-67
2023/03/13 04:08:09;;;;;;;7.13;3.22;;;9.10;99.90;;;;;;4993560;28;20519;-67
2023/03/13 04:10:35;;;;;;;9.30;2.83;;;9.00;99.90;;;;;;5010460;28;20286;-67
2023/03/13 04:13:01;;;;;;;7.22;2.97;;;8.90;99.90;;;;;;5010894;28;20070;-67
2023/03/13 04:15:27;;;;;;;7.05;3.40;;;9.30;99.90;;;;;;5009939;28;20042;-67
2023/03/13 04:17:52;;;;;;;7.65;2.67;;;9.30;99.90;;;;;;5000700;28;20253;-67
2023/03/13 04:20:18;;;;;;;7.07;2.72;;;8.70;99.90;;;;;;4995573;28;20042;-68
2023/03/13 04:22:44;;;;;;;6.80;3.00;;;8.60;99.90;;;;;;4977521;28;20050;-68
2023/03/13 04:25:10;;;;;;;6.35;3.13;;;9.20;99.90;;;;;;4946052;28;20053;-68
2023/03/13 04:27:35;;;;;;;5.60;2.80;;;9.40;99.90;;;;;;4980413;28;20038;-68
2023/03/13 04:30:02;;;;;;;7.10;3.10;;;9.40;99.90;;;;;;4979275;28;20342;-67
2023/03/13 04:32:27;;;;;;;5.18;3.25;;;8.90;99.90;;;;;;4981205;28;20042;-67
2023/03/13 04:34:53;;;;;;;6.15;3.30;;;9.30;99.90;;;;;;4979085;28;20053;-68
2023/03/13 04:37:19;;;;;;;6.75;3.58;;;9.50;99.90;;;;;;4980105;28;20065;-67
2023/03/13 04:39:46;;;;;;;5.53;3.70;;;8.80;99.90;;;;;;4994426;28;20176;-67
2023/03/13 04:42:12;;;;;;;5.22;3.28;;;8.80;99.90;;;;;;4981258;28;20521;-68
2023/03/13 04:44:37;;;;;;;5.80;3.05;;;8.90;99.90;;;;;;4994082;28;20034;-67
2023/03/13 04:47:04;;;;;;;4.90;2.90;;;8.90;99.90;;;;;;4995967;28;20069;-68
2023/03/13 04:49:30;;;;;;;3.78;2.95;;;9.50;99.90;;;;;;5010784;28;20069;-67
2023/03/13 04:51:55;;;;;;;5.80;3.42;;;9.40;99.90;;;;;;4979649;28;20129;-67
2023/03/13 04:54:21;;;;;;;5.93;4.53;;;9.00;99.90;;;;;;4997569;28;20049;-67
2023/03/13 04:56:47;;;;;;;7.38;4.90;;;9.90;99.90;;;;;;4978933;28;20234;-68
2023/03/13 04:59:14;;;;;;;7.72;5.20;;;9.50;99.90;;;;;;4979147;28;20038;-67
2023/03/13 05:01:41;;;;;;;7.40;5.43;;;9.90;99.90;;;;;;4978584;28;20358;-68
2023/03/13 05:04:06;;;;;;;8.65;6.13;;;9.40;99.90;;;;;;5010716;28;20049;-67
2023/03/13 05:06:32;;;;;;;9.55;6.85;;;9.40;99.90;;;;;;4977256;28;20046;-66
2023/03/13 05:08:58;;;;;;;7.28;5.03;;;9.30;99.90;;;;;;4977144;28;20053;-66
2023/03/13 05:11:24;;;;;;;10.75;7.05;;;9.40;99.90;;;;;;4975887;28;20057;-66
2023/03/13 05:13:49;;;;;;;8.75;6.38;;;10.10;99.90;;;;;;4994154;28;20582;-67
2023/03/13 05:16:15;;;;;;;10.00;7.45;;;9.40;99.90;;;;;;4978179;28;20042;-66
2023/03/13 05:18:41;;;;;;;9.00;6.30;;;10.00;99.90;;;;;;4980076;28;20053;-67
2023/03/13 05:21:06;;;;;;;9.25;6.68;;;9.50;99.90;;;;;;4979076;28;20099;-65
2023/03/13 05:23:33;;;;;;;12.25;7.47;;;9.70;99.90;;;;;;4976621;28;20469;-67
2023/03/13 05:25:59;;;;;;;13.32;7.13;;;10.40;99.90;;;;;;4976861;28;20041;-65
2023/03/13 05:28:25;;;;;;;9.10;6.47;;;10.40;99.90;;;;;;4978843;28;20042;-67
2023/03/13 05:30:51;;;;;;;12.05;7.25;;;9.60;99.90;;;;;;4977607;28;20144;-66
2023/03/13 05:33:18;;;;;;;10.70;6.75;;;10.00;99.90;;;;;;4975992;28;20042;-65
2023/03/13 05:35:44;;;;;;;8.13;6.70;;;10.60;99.90;;;;;;4994196;28;20144;-66
2023/03/13 05:38:10;;;;;;;12.15;8.13;;;10.60;99.90;;;;;;4976264;28;20261;-68
2023/03/13 05:40:36;;;;;;;12.63;6.88;;;9.80;99.90;;;;;;4978950;28;20718;-66
2023/03/13 05:43:02;;;;;;;13.02;8.63;;;10.70;99.90;;;;;;4992667;28;20494;-67
2023/03/13 05:45:27;;;;;;;11.93;7.07;;;10.00;99.90;;;;;;4962323;28;20038;-67
2023/03/13 05:47:53;;;;;;;13.48;8.43;;;10.50;99.90;;;;;;4977817;28;20041;-67
2023/03/13 05:50:19;;;;;;;16.17;7.68;;;10.80;99.90;;;;;;4977809;28;20049;-67
2023/03/13 05:52:45;;;;;;;11.02;5.95;;;10.80;99.90;;;;;;5009481;28;20038;-66
2023/03/13 05:55:10;;;;;;;13.10;6.22;;;11.40;99.90;;;;;;4992479;28;20088;-68
2023/03/13 05:57:36;;;;;;;10.35;4.50;;;11.30;99.90;;;;;;4975407;28;20108;-68
2023/03/13 06:00:03;;;;;;;9.48;5.05;;;11.40;99.90;;;;;;4976213;28;20266;-68
2023/03/13 06:02:28;;;;;;;7.60;3.97;;;11.40;99.90;;;;;;4996477;28;20050;-67
2023/03/13 06:04:54;;;;;;;8.90;4.45;;;11.40;99.90;;;;;;4992953;28;20052;-67
2023/03/13 06:07:20;;;;;;;8.25;4.13;;;11.40;99.90;;;;;;4994025;28;20167;-67
2023/03/13 06:09:46;;;;;;;11.35;3.92;;;10.40;99.90;;;;;;4979509;28;20038;-67
2023/03/13 06:12:12;;;;;;;8.90;4.10;;;11.50;99.90;;;;;;4977021;28;20050;-67
2023/03/13 06:14:38;;;;;;;12.32;5.00;;;11.30;99.90;;;;;;5009881;28;20046;-67
2023/03/13 06:17:04;;;;;;;13.48;4.63;;;11.10;99.90;;;;;;4976903;28;20061;-67
2023/03/13 06:19:30;;;;;;;9.85;3.60;;;10.40;99.90;;;;;;4978533;28;20244;-67
2023/03/13 06:21:56;;;;;;;10.15;3.50;;;11.50;99.90;;;;;;5007389;28;20046;-67
2023/03/13 06:24:22;;;;;;;9.38;3.80;;;11.10;99.90;;;;;;4979764;28;20213;-68
2023/03/13 06:26:49;;;;;;;11.25;4.15;;;10.50;99.90;;;;;;4977409;28;20030;-67
2023/03/13 06:29:14;;;;;;;9.85;4.03;;;10.50;99.90;;;;;;5007958;28;20050;-67
2023/03/13 06:31:40;;;;;;;10.55;3.83;;;11.50;99.90;;;;;;4977592;28;20781;-67
2023/03/13 06:34:09;;;;;;;10.27;2.78;;;10.50;99.90;;;;;;4995286;28;20068;-66
2023/03/13 06:36:35;;;;;;;6.68;2.20;;;10.40;99.90;;;;;;4978524;28;20093;-67
2023/03/13 06:39:01;;;;;;;9.07;3.20;;;11.20;99.90;;;;;;4992672;28;20618;-66
2023/03/13 06:41:27;;;;;;;8.07;2.60;;;10.80;99.90;;;;;;5008555;28;20186;-66
2023/03/13 06:43:53;;;;;;;16.70;4.50;;;10.90;99.90;;;;;;5008957;28;20513;-67
2023/03/13 06:46:22;;;;;;;12.10;4.43;;;10.50;99.90;;;;;;4977392;28;20044;-66
2023/03/13 06:48:48;;;;;;;21.05;4.72;;;11.40;99.90;;;;;;4991757;28;20042;-67
2023/03/13 06:51:16;;;;;;;11.68;4.32;;;11.50;99.90;;;;;;4977770;28;20041;-66
2023/03/13 06:53:42;;;;;;;15.38;5.63;;;11.50;99.90;;;;;;4975959;28;20289;-66
2023/03/13 06:56:09;;;;;;;15.63;4.97;;;10.60;99.90;;;;;;4976614;28;20330;-66
2023/03/13 06:58:34;;;;;;;9.98;4.47;;;10.40;99.90;;;;;;4976228;28;20054;-66
2023/03/13 07:01:08;;;;;;;10.93;4.57;;;11.40;99.90;;;;;;5008499;28;20050;-67
2023/03/13 07:03:35;;;;;;;10.10;3.40;;;11.60;99.90;;;;;;4978029;28;20629;-66
2023/03/13 07:06:00;;;;;;;13.32;5.50;;;11.60;99.90;;;;;;4992947;28;20038;-67
2023/03/13 07:08:26;;;;;;;17.70;5.88;;;11.40;99.90;;;;;;4975757;28;20053;-68
2023/03/13 07:10:57;;;;;;;14.40;5.80;;;10.50;99.90;;;;;;4971589;28;20337;-66
2023/03/13 07:13:22;;;;;;;14.25;5.18;;;11.50;99.90;;;;;;4996446;28;20132;-66
2023/03/13 07:15:48;;;;;;;10.07;4.25;;;11.60;99.90;;;;;;4976569;28;20410;-67
2023/03/13 07:18:14;;;;;;;14.52;4.22;;;10.90;99.90;;;;;;4993349;28;20049;-66
2023/03/13 07:20:40;;;;;;;13.23;5.07;;;10.50;99.90;;;;;;5013406;28;20038;-66
2023/03/13 07:23:05;;;;;;;15.85;5.03;;;11.20;99.90;;;;;;4981253;28;20050;-67
2023/03/13 07:25:31;;;;;;;13.57;5.00;;;11.30;99.90;;;;;;4980930;28;20038;-66
2023/03/13 07:27:59;;;;;;;14.00;4.00;;;11.60;99.90;;;;;;4981036;28;20448;-65
2023/03/13 07:30:26;;;;;;;10.50;3.53;;;11.40;99.90;;;;;;4982771;28;20041;-66
2023/03/13 07:32:52;;;;;;;8.10;2.88;;;11.60;99.90;;;;;;5012360;28;20133;-65
2023/03/13 07:35:17;;;;;;;19.48;4.20;;;11.60;99.90;;;;;;5014813;28;20230;-65
2023/03/13 07:37:43;;;;;;;12.48;3.92;;;10.60;99.90;;;;;;4982453;28;20555;-66
2023/03/13 07:40:09;;;;;;;12.32;4.03;;;11.60;99.90;;;;;;5014475;28;20242;-65
2023/03/13 07:42:38;;;;;;;13.15;3.63;;;11.10;99.90;;;;;;4981487;28;20365;-66
2023/03/13 07:45:04;;;;;;;15.23;3.40;;;10.60;99.90;;;;;;5014940;28;20153;-66
2023/03/13 07:47:30;;;;;;;8.80;3.00;;;10.70;99.90;;;;;;4981582;28;20042;-66
2023/03/13 07:49:55;;;;;;;10.18;3.08;;;10.70;99.90;;;;;;4999585;28;20360;-66
2023/03/13 07:52:21;;;;;;;9.38;2.63;;;11.70;99.90;;;;;;4983083;28;20098;-67
2023/03/13 07:54:47;;;;;;;8.52;2.72;;;11.20;99.90;;;;;;4983300;28;20042;-67
2023/03/13 07:57:13;;;;;;;10.90;2.85;;;11.10;99.90;;;;;;5000583;28;20297;-66
2023/03/13 07:59:38;;;;;;;7.55;2.92;;;10.90;99.90;;;;;;4986003;28;20069;-66
2023/03/13 08:02:04;;;;;;;11.52;3.03;;;11.60;99.90;;;;;;4998979;28;20093;-67
2023/03/13 08:04:30;;;;;;;13.38;3.47;;;10.60;99.90;;;;;;4999107;28;20496;-65
2023/03/13 08:06:56;;;;;;;10.15;3.53;;;10.60;99.90;;;;;;5015414;28;20077;-67
2023/03/13 08:09:21;;;;;;;7.63;2.30;;;10.60;99.90;;;;;;4999791;28;20041;-65
2023/03/13 08:11:47;;;;;;;8.75;3.47;;;11.70;99.90;;;;;;5015048;28;20125;-65
2023/03/13 08:14:13;;;;;;;11.02;2.92;;;11.70;99.90;;;;;;5000078;28;20042;-67
2023/03/13 08:16:39;;;;;;;5.88;1.58;;;11.70;99.90;;;;;;4980747;28;20053;-66
2023/03/13 08:19:05;;;;;;;10.00;2.47;;;11.20;99.90;;;;;;5014559;28;20345;-67
2023/03/13 08:21:33;;;;;;;9.07;2.50;;;11.60;99.90;;;;;;4982528;28;20050;-66
2023/03/13 08:24:04;;;;;;;7.75;2.15;;;10.70;99.90;;;;;;4983450;28;20038;-65
2023/03/13 08:26:31;;;;;;;6.35;1.60;;;10.80;99.90;;;;;;4985431;28;20081;-65
2023/03/13 08:29:00;;;;;;;4.88;1.60;;;11.50;99.90;;;;;;4983778;28;20046;-66
2023/03/13 08:31:34;;;;;;;6.40;1.40;;;11.20;99.90;;;;;;4998214;28;20046;-66
2023/03/13 08:34:00;;;;;;;6.22;1.35;;;10.70;99.90;;;;;;5014421;28;20045;-66
2023/03/13 08:36:36;;;;;;;8.32;1.65;;;11.10;99.90;;;;;;4982311;28;20144;-66
2023/03/13 08:39:05;;;;;;;5.10;1.00;;;11.30;99.90;;;;;;4962488;28;20109;-65
2023/03/13 08:41:35;;;;;;;4.43;1.10;;;11.30;99.90;;;;;;4979726;28;20042;-65
2023/03/13 08:44:03;;;;;;;4.40;0.73;;;11.20;99.90;;;;;;4979791;28;20439;-66
2023/03/13 08:46:58;;;;;;;5.18;0.73;;;11.20;99.90;;;;;;4999568;28;20043;-63
2023/03/13 08:50:14;;;;;;;4.72;0.75;;;11.90;99.90;;;;;;4996637;28;20033;-64
2023/03/13 08:52:39;;;;;;;3.58;0.70;;;11.80;99.90;;;;;;4968713;28;20046;-64
2023/03/13 08:55:06;;;;;;;5.40;0.80;;;12.30;99.90;;;;;;4981296;28;20688;-63
2023/03/13 08:57:31;;;;;;;2.40;0.70;;;12.20;99.90;;;;;;4996115;28;20482;-63
2023/03/13 08:59:57;;;;;;;4.65;0.80;;;12.40;99.90;;;;;;5000145;28;20050;-64
2023/03/13 09:02:22;;;;;;;8.75;1.23;;;12.50;99.90;;;;;;5006085;28;20034;-64
2023/03/13 09:04:48;;;;;;;2.13;0.40;;;12.70;99.90;;;;;;4981161;28;20173;-63
2023/03/13 09:07:15;;;;;;;5.43;0.40;;;13.00;99.90;;;;;;5015819;28;20049;-63
2023/03/13 09:09:41;;;;;;;7.90;0.60;;;13.20;99.90;;;;;;4981884;28;20277;-63
2023/03/13 09:12:07;;;;;;;3.65;0.40;;;13.20;99.90;;;;;;5013274;28;20061;-64
2023/03/13 09:14:33;;;;;;;3.13;0.55;;;13.20;99.90;;;;;;4982499;28;20076;-63
2023/03/13 09:16:59;;;;;;;4.35;0.63;;;13.50;99.90;;;;;;4996764;28;20558;-63
2023/03/13 09:19:24;;;;;;;5.28;0.45;;;13.70;99.90;;;;;;5012941;28;20042;-65
2023/03/13 09:21:50;;;;;;;4.15;0.40;;;13.80;99.90;;;;;;4981749;28;20057;-64
2023/03/13 09:24:16;;;;;;;1.83;0.40;;;13.70;99.90;;;;;;4996203;28;20121;-64
2023/03/13 09:26:42;;;;;;;3.55;0.40;;;13.80;1.00;;;;;;5014303;28;20043;-63
2023/03/13 09:29:09;;;;;;;2.65;0.30;;;13.50;1.00;;;;;;4980718;28;20061;-62
2023/03/13 09:31:34;;;;;;;2.95;0.30;;;13.40;1.00;;;;;;4999279;28;20100;-63
2023/03/13 09:34:00;;;;;;;2.40;0.50;;;13.20;1.00;;;;;;4981177;28;20532;-63
2023/03/13 09:36:27;;;;;;;3.17;0.40;;;13.00;99.90;;;;;;5010973;28;20066;-66
2023/03/13 09:38:56;;;;;;;6.82;0.63;;;13.20;99.90;;;;;;4974763;28;20531;-65
2023/03/13 09:41:30;;;;;;;3.38;0.38;;;13.30;99.90;;;;;;4990679;28;20046;-65
2023/03/13 09:44:11;;;;;;;6.45;0.43;;;13.50;99.90;;;;;;4959029;28;20034;-65
2023/03/13 09:46:57;;;;;;;4.93;0.47;;;13.50;99.90;;;;;;4991338;28;20060;-65
2023/03/13 09:49:29;;;;;;;9.60;0.85;;;13.50;99.90;;;;;;4977098;28;20044;-65
2023/03/13 09:52:09;;;;;;;7.68;1.23;;;13.10;99.90;;;;;;4993079;28;20153;-64
2023/03/13 09:54:44;;;;;;;7.35;1.00;;;12.70;99.90;;;;;;5012097;28;20081;-65
2023/03/13 09:57:17;;;;;;;7.93;0.82;;;12.50;99.90;;;;;;4960313;28;20094;-66
2023/03/13 09:59:56;;;;;;;14.00;1.02;;;12.60;99.90;;;;;;4977774;28;20125;-65
2023/03/13 10:02:32;;;;;;;8.10;0.90;;;12.70;99.90;;;;;;4978034;28;20053;-65
2023/03/13 10:05:04;;;;;;;5.80;0.77;;;13.00;99.90;;;;;;4960277;28;20066;-64
2023/03/13 10:07:30;;;;;;;8.45;1.10;;;13.00;23.50;;;;;;4976714;28;20325;-66
2023/03/13 10:09:55;;;;;;;9.23;1.52;;;13.10;99.90;;;;;;4994146;28;20042;-65
2023/03/13 10:12:28;;;;;;;10.27;0.82;;;13.10;16.70;;;;;;4977529;28;20410;-65
2023/03/13 10:14:56;;;;;;;8.02;0.77;;;13.20;1.00;;;;;;4991605;28;20042;-65
2023/03/13 10:17:38;;;;;;;7.05;1.05;;;13.50;34.40;;;;;;4977267;28;20472;-65
2023/03/13 10:20:24;;;;;;;8.95;1.30;;;13.80;1.00;;;;;;4992576;28;20424;-65
2023/03/13 10:22:59;;;;;;;7.63;1.17;;;14.10;1.00;;;;;;4991125;28;20070;-65
2023/03/13 10:25:30;;;;;;;8.30;1.35;;;14.70;1.00;;;;;;4991881;28;20629;-65
2023/03/13 10:27:57;;;;;;;12.50;1.63;;;15.00;99.90;;;;;;4977767;28;20038;-65
2023/03/13 10:30:34;;;;;;;13.95;1.40;;;15.30;99.90;;;;;;4994182;28;20286;-66
2023/03/13 10:33:06;;;;;;;10.15;1.58;;;15.30;99.90;;;;;;5008341;28;20052;-65
2023/03/13 10:35:37;;;;;;;8.00;1.30;;;15.40;99.90;;;;;;4976894;28;20528;-65
2023/03/13 10:38:16;;;;;;;9.20;1.52;;;15.60;99.90;;;;;;4979266;28;20320;-66
2023/03/13 10:40:42;;;;;;;8.50;1.48;;;15.40;99.90;;;;;;4992168;28;20052;-65
2023/03/13 10:43:19;;;;;;;15.85;1.85;;;15.20;99.90;;;;;;4990517;28;20365;-64
2023/03/13 10:45:45;;;;;;;15.20;2.40;;;14.80;99.90;;;;;;5007778;28;20038;-65
2023/03/13 10:48:21;;;;;;;10.10;1.48;;;14.90;99.90;;;;;;4975608;28;20571;-65
2023/03/13 10:50:50;;;;;;;11.98;1.77;;;14.70;99.90;;;;;;5010733;28;20388;-65
2023/03/13 10:53:36;;;;;;;12.45;2.50;;;15.00;99.90;;;;;;4976911;28;20099;-64
2023/03/13 10:56:02;;;;;;;16.27;2.30;;;15.10;99.90;;;;;;4973390;28;20625;-64
2023/03/13 10:58:36;;;;;;;12.98;2.22;;;15.30;99.90;;;;;;4979510;28;20133;-64
2023/03/13 11:01:16;;;;;;;8.55;1.33;;;15.20;99.90;;;;;;4986677;28;20042;-64
2023/03/13 11:03:43;;;;;;;14.05;2.00;;;15.10;99.90;;;;;;5006948;28;20038;-65
2023/03/13 11:06:30;;;;;;;12.20;1.75;;;15.30;99.90;;;;;;4972842;28;20050;-66
2023/03/13 11:09:08;;;;;;;12.77;1.80;;;15.00;99.90;;;;;;4974182;28;20170;-65
2023/03/13 11:11:52;;;;;;;10.32;2.05;;;14.90;99.90;;;;;;5005210;28;20182;-65
2023/03/13 11:14:23;;;;;;;10.63;1.63;;;14.80;99.90;;;;;;4975512;28;20042;-64
2023/03/13 11:16:51;;;;;;;13.68;2.20;;;14.80;99.90;;;;;;4994084;28;20108;-66
2023/03/13 11:19:25;;;;;;;13.65;2.30;;;14.90;99.90;;;;;;5008503;28;20048;-65
2023/03/13 11:21:57;;;;;;;9.43;0.93;;;14.80;99.90;;;;;;5008834;28;20042;-65
2023/03/13 11:24:35;;;;;;;9.02;1.30;;;14.80;99.90;;;;;;4978642;28;20529;-65
2023/03/13 11:27:22;;;;;;;13.38;1.40;;;14.60;99.90;;;;;;5008426;28;20451;-66
2023/03/13 11:30:14;;;;;;;12.52;1.67;;;14.70;99.90;;;;;;5010790;28;20038;-64
2023/03/13 11:32:55;;;;;;;14.13;1.58;;;15.00;99.90;;;;;;4998100;28;20320;-64
2023/03/13 11:35:50;;;;;;;14.75;1.95;;;15.10;99.90;;;;;;5007651;28;20912;-64
2023/03/13 11:38:46;;;;;;;11.68;1.85;;;15.00;99.90;;;;;;5006970;28;20050;-64
2023/03/13 11:41:43;;;;;;;7.10;1.23;;;14.90;99.90;;;;;;4976823;28;20717;-66
2023/03/13 11:44:30;;;;;;;10.73;1.10;;;14.70;99.90;;;;;;5007743;28;20047;-64
2023/03/13 11:47:29;;;;;;;13.02;1.50;;;14.70;99.90;;;;;;5005324;28;20038;-65
2023/03/13 11:49:54;;;;;;;11.07;1.30;;;14.50;99.90;;;;;;4976687;28;20201;-64
2023/03/13 11:52:45;;;;;;;12.50;1.35;;;14.60;99.90;;;;;;4989235;28;20453;-65
2023/03/13 11:55:26;;;;;;;10.07;1.42;;;14.60;99.90;;;;;;4974815;28;20077;-64
2023/03/13 11:58:41;;;;;;;13.27;1.63;;;14.50;99.90;;;;;;4979753;28;20208;-64
2023/03/13 12:01:15;;;;;;;13.73;2.05;;;14.30;99.90;;;;;;4985806;28;20054;-65
2023/03/13 12:03:54;;;;;;;8.32;0.85;;;14.30;99.90;;;;;;4977831;28;20046;-64
2023/03/13 12:06:40;;;;;;;9.07;1.17;;;14.40;99.90;;;;;;5009143;28;20352;-64
2023/03/13 12:09:27;;;;;;;11.40;1.20;;;14.50;99.90;;;;;;4974321;28;20520;-65
2023/03/13 12:12:24;;;;;;;10.20;1.17;;;14.80;99.90;;;;;;4974957;28;20042;-63
2023/03/13 12:15:19;;;;;;;5.47;0.82;;;14.90;99.90;;;;;;5008173;28;21044;-66
2023/03/13 12:17:59;;;;;;;10.25;1.25;;;14.80;99.90;;;;;;4986984;28;20701;-64
2023/03/13 12:20:33;;;;;;;10.73;1.20;;;14.80;99.90;;;;;;5002799;28;20078;-64
2023/03/13 12:23:17;;;;;;;7.88;0.88;;;14.70;99.90;;;;;;4990282;28;20413;-63
2023/03/13 12:26:04;;;;;;;10.38;1.20;;;15.00;99.90;;;;;;5011195;28;20056;-64
2023/03/13 12:28:38;;;;;;;9.15;1.13;;;15.20;99.90;;;;;;4993801;28;20760;-64
2023/03/13 12:31:29;;;;;;;9.98;1.38;;;15.30;99.90;;;;;;4992618;28;20041;-64
2023/03/13 12:34:01;;;;;;;12.55;1.55;;;15.10;99.90;;;;;;5010939;28;20911;-64
2023/03/13 12:36:40;;;;;;;9.80;1.70;;;15.00;99.90;;;;;;4977079;28;20054;-63
2023/03/13 12:39:42;;;;;;;8.63;1.58;;;15.00;99.90;;;;;;4992036;28;20321;-64
2023/03/13 12:42:27;;;;;;;11.70;1.90;;;15.20;99.90;;;;;;4976498;28;20073;-65
2023/03/13 12:44:55;;;;;;;9.90;1.38;;;15.40;99.90;;;;;;4997991;28;20042;-64
2023/03/13 12:47:33;;;;;;;10.25;1.33;;;15.90;99.90;;;;;;4981654;28;20432;-65
2023/03/13 12:50:37;;;;;;;12.40;1.73;;;16.30;27.00;;;;;;4976370;28;20162;-64
2023/03/13 12:53:27;;;;;;;9.68;1.20;;;16.30;1.00;;;;;;4993639;28;20054;-65
2023/03/13 12:56:09;;;;;;;13.65;1.95;;;16.30;1.00;;;;;;5008371;28;20045;-65
2023/03/13 12:59:02;;;;;;;14.00;2.50;;;16.40;9.50;;;;;;4978755;28;20185;-64
2023/03/13 13:01:35;;;;;;;11.93;2.05;;;16.90;1.00;;;;;;5011373;28;20757;-65